Time;durP1;ratioP1;P1;durP2;ratioP2;P2;SDS_P1;SDS_P2;PMS_P1;PMS_P2;Temp;Humidity;BMP_temperature;BMP_pressure;BME280_temperature;BME280_humidity;BME280_pressure;Samples;Min_cycle;Max_cycle;Signal;HPM_P1;HPM_P2
2024/01/31 00:01:51;;;;;;;5.65;2.10;;;;;;;;;;5104419;27;20113;-62
2024/01/31 00:04:18;;;;;;;12.15;2.40;;;;;;;;;;5104777;27;20056;-61
2024/01/31 00:06:48;;;;;;;5.90;2.30;;;;;;;;;;5103694;27;20055;-62
2024/01/31 00:09:15;;;;;;;7.88;1.65;;;;;;;;;;5103764;27;20052;-62
2024/01/31 00:11:41;;;;;;;7.00;2.40;;;;;;;;;;5104169;27;20055;-62
2024/01/31 00:14:08;;;;;;;5.03;2.17;;;;;;;;;;5104482;27;20052;-62
2024/01/31 00:16:34;;;;;;;3.60;1.88;;;;;;;;;;5104161;27;20055;-62
2024/01/31 00:19:01;;;;;;;4.47;2.13;;;;;;;;;;5103550;27;20048;-61
2024/01/31 00:21:28;;;;;;;10.13;3.10;;;;;;;;;;5103894;27;20478;-62
2024/01/31 00:23:54;;;;;;;6.18;2.30;;;;;;;;;;5103585;27;20102;-62
2024/01/31 00:26:21;;;;;;;6.45;2.05;;;;;;;;;;5104096;27;20051;-63
2024/01/31 00:28:47;;;;;;;7.47;2.00;;;;;;;;;;5103562;27;20059;-62
2024/01/31 00:31:14;;;;;;;8.45;1.95;;;;;;;;;;5104017;27;20059;-62
2024/01/31 00:33:40;;;;;;;5.50;1.92;;;;;;;;;;5103838;27;20517;-60
2024/01/31 00:36:06;;;;;;;7.75;1.80;;;;;;;;;;5103733;27;20055;-62
2024/01/31 00:38:33;;;;;;;5.30;2.17;;;;;;;;;;5103564;27;20067;-62
2024/01/31 00:41:00;;;;;;;9.10;2.13;;;;;;;;;;5103660;27;20052;-62
2024/01/31 00:43:26;;;;;;;5.55;1.92;;;;;;;;;;5102401;28;20133;-62
2024/01/31 00:45:53;;;;;;;6.13;1.83;;;;;;;;;;5103462;27;20056;-60
2024/01/31 00:48:20;;;;;;;7.13;1.58;;;;;;;;;;5102986;27;20059;-62
2024/01/31 00:50:46;;;;;;;5.32;1.60;;;;;;;;;;5103359;27;20045;-62
2024/01/31 00:53:12;;;;;;;9.10;1.73;;;;;;;;;;5103749;27;20056;-61
2024/01/31 00:55:39;;;;;;;5.05;1.90;;;;;;;;;;5103742;27;20124;-60
2024/01/31 00:58:06;;;;;;;5.40;2.17;;;;;;;;;;5103339;27;20055;-62
2024/01/31 01:00:32;;;;;;;9.23;2.05;;;;;;;;;;5103116;27;20301;-62
2024/01/31 01:02:58;;;;;;;9.63;2.15;;;;;;;;;;5103010;27;20157;-62
2024/01/31 01:05:26;;;;;;;8.13;2.25;;;;;;;;;;5103455;27;20098;-62
2024/01/31 01:07:52;;;;;;;7.82;2.05;;;;;;;;;;5102978;27;20079;-62
2024/01/31 01:10:19;;;;;;;5.93;1.58;;;;;;;;;;5104102;27;20083;-59
2024/01/31 01:12:46;;;;;;;7.78;1.98;;;;;;;;;;5103151;27;20478;-62
2024/01/31 01:15:12;;;;;;;8.35;1.90;;;;;;;;;;5102928;27;20081;-59
2024/01/31 01:17:42;;;;;;;3.53;1.75;;;;;;;;;;5103172;27;20048;-62
2024/01/31 01:20:09;;;;;;;2.97;1.92;;;;;;;;;;5103336;28;20110;-62
2024/01/31 01:22:35;;;;;;;6.65;2.53;;;;;;;;;;5102559;27;20605;-62
2024/01/31 01:25:02;;;;;;;11.43;2.53;;;;;;;;;;5104203;27;20234;-61
2024/01/31 01:27:29;;;;;;;7.38;2.10;;;;;;;;;;5106860;27;20483;-62
2024/01/31 01:29:55;;;;;;;4.57;2.10;;;;;;;;;;5106626;27;20529;-62
2024/01/31 01:32:21;;;;;;;3.75;1.85;;;;;;;;;;5107114;27;20545;-61
2024/01/31 01:34:48;;;;;;;5.00;1.90;;;;;;;;;;5106834;27;20059;-62
2024/01/31 01:37:15;;;;;;;3.80;2.00;;;;;;;;;;5106101;27;20134;-62
2024/01/31 01:39:43;;;;;;;9.13;2.78;;;;;;;;;;5106807;27;20052;-61
2024/01/31 01:42:09;;;;;;;6.18;2.25;;;;;;;;;;5107244;28;20059;-63
2024/01/31 01:44:39;;;;;;;6.25;2.38;;;;;;;;;;5106452;27;20044;-62
2024/01/31 01:47:06;;;;;;;8.05;2.40;;;;;;;;;;5106483;28;20521;-62
2024/01/31 01:49:32;;;;;;;7.35;2.08;;;;;;;;;;5106745;27;20121;-62
2024/01/31 01:51:59;;;;;;;5.20;2.15;;;;;;;;;;5106296;27;20048;-62
2024/01/31 01:54:26;;;;;;;5.97;2.47;;;;;;;;;;5106299;27;20048;-61
2024/01/31 01:56:53;;;;;;;7.43;2.60;;;;;;;;;;5105327;27;20506;-61
2024/01/31 01:59:19;;;;;;;6.28;2.22;;;;;;;;;;5105769;27;20570;-62
2024/01/31 02:01:46;;;;;;;4.90;2.20;;;;;;;;;;5106040;27;20056;-62
2024/01/31 02:04:13;;;;;;;7.13;2.10;;;;;;;;;;5106297;27;20037;-61
2024/01/31 02:06:40;;;;;;;3.67;2.00;;;;;;;;;;5105576;27;20056;-62
2024/01/31 02:09:06;;;;;;;8.43;2.28;;;;;;;;;;5106361;27;20105;-62
2024/01/31 02:11:34;;;;;;;4.05;1.77;;;;;;;;;;5106061;27;20080;-62
2024/01/31 02:14:01;;;;;;;4.35;2.22;;;;;;;;;;5106505;28;20059;-63
2024/01/31 02:16:27;;;;;;;7.93;2.08;;;;;;;;;;5105621;27;20061;-63
2024/01/31 02:18:53;;;;;;;5.03;1.85;;;;;;;;;;5104612;27;20139;-60
2024/01/31 02:21:21;;;;;;;6.20;2.17;;;;;;;;;;5105996;27;20052;-61
2024/01/31 02:23:48;;;;;;;9.55;2.33;;;;;;;;;;5105920;27;20147;-62
2024/01/31 02:26:15;;;;;;;6.47;2.33;;;;;;;;;;5106228;27;20063;-62
2024/01/31 02:28:41;;;;;;;4.35;1.83;;;;;;;;;;5105686;27;20048;-63
2024/01/31 02:31:08;;;;;;;8.43;2.30;;;;;;;;;;5106350;27;20048;-62
2024/01/31 02:33:34;;;;;;;6.00;2.40;;;;;;;;;;5105037;27;20052;-62
2024/01/31 02:36:01;;;;;;;7.80;2.63;;;;;;;;;;5104987;27;20052;-62
2024/01/31 02:38:27;;;;;;;5.05;2.30;;;;;;;;;;5105344;27;20052;-62
2024/01/31 02:40:53;;;;;;;6.90;2.55;;;;;;;;;;5104841;27;20060;-61
2024/01/31 02:43:20;;;;;;;5.95;2.15;;;;;;;;;;5105842;27;20059;-62
2024/01/31 02:45:46;;;;;;;8.73;3.20;;;;;;;;;;5105431;27;20136;-62
2024/01/31 02:48:13;;;;;;;6.45;2.30;;;;;;;;;;5105105;27;20079;-60
2024/01/31 02:50:39;;;;;;;8.43;3.10;;;;;;;;;;5105755;27;20063;-60
2024/01/31 02:53:06;;;;;;;5.45;2.13;;;;;;;;;;5104951;27;20047;-63
2024/01/31 02:55:32;;;;;;;6.32;2.13;;;;;;;;;;5105989;27;20829;-59
2024/01/31 02:57:59;;;;;;;4.50;2.08;;;;;;;;;;5105416;27;20049;-62
2024/01/31 03:00:25;;;;;;;6.97;2.60;;;;;;;;;;5105134;27;20060;-63
2024/01/31 03:02:51;;;;;;;6.18;2.28;;;;;;;;;;5104825;27;20437;-61
2024/01/31 03:05:18;;;;;;;7.80;2.97;;;;;;;;;;5105332;27;20632;-62
2024/01/31 03:07:45;;;;;;;4.82;2.78;;;;;;;;;;5105142;27;20135;-63
2024/01/31 03:10:12;;;;;;;11.35;2.40;;;;;;;;;;5105529;27;20154;-62
2024/01/31 03:12:38;;;;;;;5.32;2.70;;;;;;;;;;5105546;27;20098;-62
2024/01/31 03:15:05;;;;;;;5.88;2.60;;;;;;;;;;5105633;27;20149;-62
2024/01/31 03:17:35;;;;;;;8.45;2.30;;;;;;;;;;5104569;27;20052;-62
2024/01/31 03:20:05;;;;;;;9.70;2.90;;;;;;;;;;5105048;27;20493;-62
2024/01/31 03:22:31;;;;;;;5.03;1.98;;;;;;;;;;5105124;27;20113;-62
2024/01/31 03:24:58;;;;;;;6.68;3.00;;;;;;;;;;5104331;27;20197;-60
2024/01/31 03:27:25;;;;;;;4.43;1.98;;;;;;;;;;5104374;27;20412;-62
2024/01/31 03:29:51;;;;;;;7.18;2.55;;;;;;;;;;5104429;28;20585;-62
2024/01/31 03:32:18;;;;;;;4.30;2.10;;;;;;;;;;5104435;27;20051;-62
2024/01/31 03:34:44;;;;;;;8.65;2.63;;;;;;;;;;5104587;27;20058;-62
2024/01/31 03:37:11;;;;;;;5.18;2.15;;;;;;;;;;5105036;27;20048;-62
2024/01/31 03:39:38;;;;;;;2.10;1.80;;;;;;;;;;5105629;27;20446;-61
2024/01/31 03:42:04;;;;;;;4.82;1.73;;;;;;;;;;5104794;27;20091;-62
2024/01/31 03:44:31;;;;;;;7.32;2.50;;;;;;;;;;5105042;27;20134;-62
2024/01/31 03:46:58;;;;;;;4.20;2.17;;;;;;;;;;5103674;27;20143;-62
2024/01/31 03:49:24;;;;;;;6.05;1.67;;;;;;;;;;5104181;27;20143;-62
2024/01/31 03:51:50;;;;;;;7.15;2.15;;;;;;;;;;5104662;27;20056;-61
2024/01/31 03:54:17;;;;;;;9.60;1.90;;;;;;;;;;5104414;27;20055;-62
2024/01/31 03:56:43;;;;;;;4.10;1.63;;;;;;;;;;5104220;27;20044;-61
2024/01/31 03:59:10;;;;;;;5.22;2.13;;;;;;;;;;5104426;27;20143;-62
2024/01/31 04:01:36;;;;;;;6.93;1.70;;;;;;;;;;5104286;27;20083;-62
2024/01/31 04:04:03;;;;;;;3.20;1.42;;;;;;;;;;5102822;27;20060;-62
2024/01/31 04:06:30;;;;;;;5.50;1.23;;;;;;;;;;5104385;27;20051;-62
2024/01/31 04:08:56;;;;;;;6.20;1.40;;;;;;;;;;5104146;27;20048;-61
2024/01/31 04:11:23;;;;;;;5.32;1.60;;;;;;;;;;5104256;27;20052;-62
2024/01/31 04:13:49;;;;;;;4.95;1.65;;;;;;;;;;5104727;27;20060;-62
2024/01/31 04:16:16;;;;;;;4.32;1.75;;;;;;;;;;5103951;27;20386;-60
2024/01/31 04:18:43;;;;;;;3.60;1.58;;;;;;;;;;5103650;27;20052;-60
2024/01/31 04:21:09;;;;;;;9.32;1.95;;;;;;;;;;5103672;28;20059;-62
2024/01/31 04:23:36;;;;;;;6.47;2.10;;;;;;;;;;5096805;27;20067;-61
2024/01/31 04:26:02;;;;;;;7.55;2.10;;;;;;;;;;5103997;27;20105;-62
2024/01/31 04:28:30;;;;;;;7.22;1.90;;;;;;;;;;5104056;27;20056;-62
2024/01/31 04:30:57;;;;;;;7.65;2.15;;;;;;;;;;5103134;28;20052;-61
2024/01/31 04:33:24;;;;;;;6.40;1.98;;;;;;;;;;5093978;27;20138;-61
2024/01/31 04:35:51;;;;;;;5.03;2.20;;;;;;;;;;5083808;28;20135;-62
2024/01/31 04:38:17;;;;;;;6.05;2.22;;;;;;;;;;5083462;28;20053;-62
2024/01/31 04:40:43;;;;;;;4.40;2.40;;;;;;;;;;5097535;28;20052;-61
2024/01/31 04:43:10;;;;;;;9.20;2.13;;;;;;;;;;5104208;27;20055;-61
2024/01/31 04:45:37;;;;;;;6.13;2.33;;;;;;;;;;5103347;27;20044;-62
2024/01/31 04:48:03;;;;;;;5.65;2.10;;;;;;;;;;5103800;27;20155;-61
2024/01/31 04:50:30;;;;;;;3.60;1.95;;;;;;;;;;5104045;27;20052;-61
2024/01/31 04:52:56;;;;;;;2.58;1.70;;;;;;;;;;5103847;27;20536;-60
2024/01/31 04:55:22;;;;;;;7.97;2.00;;;;;;;;;;5104183;27;20125;-61
2024/01/31 04:57:49;;;;;;;6.03;1.80;;;;;;;;;;5095108;27;20063;-61
2024/01/31 05:00:15;;;;;;;5.70;2.28;;;;;;;;;;5091701;27;20110;-62
2024/01/31 05:02:42;;;;;;;5.05;1.80;;;;;;;;;;5083135;28;20525;-63
2024/01/31 05:05:09;;;;;;;7.78;2.30;;;;;;;;;;5083400;28;20048;-62
2024/01/31 05:07:35;;;;;;;7.75;1.90;;;;;;;;;;5083494;28;20063;-61
2024/01/31 05:10:03;;;;;;;4.40;2.78;;;;;;;;;;5089964;28;20056;-62
2024/01/31 05:12:29;;;;;;;5.35;2.50;;;;;;;;;;5103381;27;20143;-62
2024/01/31 05:14:56;;;;;;;5.88;2.53;;;;;;;;;;5086226;27;20049;-62
2024/01/31 05:17:22;;;;;;;4.68;2.10;;;;;;;;;;5085757;28;20131;-61
2024/01/31 05:19:49;;;;;;;5.18;2.42;;;;;;;;;;5082843;28;20052;-62
2024/01/31 05:22:15;;;;;;;4.85;2.40;;;;;;;;;;5081899;28;20056;-62
2024/01/31 05:24:42;;;;;;;3.22;2.17;;;;;;;;;;5103436;27;20083;-62
2024/01/31 05:27:09;;;;;;;7.03;2.78;;;;;;;;;;5101526;27;20072;-61
2024/01/31 05:29:35;;;;;;;6.30;3.85;;;;;;;;;;5103268;27;20132;-62
2024/01/31 05:32:03;;;;;;;4.80;2.20;;;;;;;;;;5101310;27;20139;-60
2024/01/31 05:34:30;;;;;;;4.63;2.50;;;;;;;;;;5094526;28;20051;-62
2024/01/31 05:36:56;;;;;;;5.13;2.30;;;;;;;;;;5102759;27;20052;-62
2024/01/31 05:39:22;;;;;;;5.13;2.28;;;;;;;;;;5102722;27;20044;-62
2024/01/31 05:41:49;;;;;;;4.45;2.15;;;;;;;;;;5101793;27;20087;-62
2024/01/31 05:44:15;;;;;;;7.93;2.70;;;;;;;;;;5102563;27;20064;-62
2024/01/31 05:46:43;;;;;;;2.67;2.17;;;;;;;;;;5102097;27;20060;-62
2024/01/31 05:49:10;;;;;;;5.43;2.25;;;;;;;;;;5103504;27;20126;-61
2024/01/31 05:51:36;;;;;;;3.92;2.53;;;;;;;;;;5102637;27;20052;-62
2024/01/31 05:54:03;;;;;;;5.50;2.40;;;;;;;;;;5101491;27;20048;-60
2024/01/31 05:56:29;;;;;;;4.32;2.42;;;;;;;;;;5102247;27;20063;-62
2024/01/31 05:58:56;;;;;;;3.40;2.65;;;;;;;;;;5101409;27;20506;-61
2024/01/31 06:01:22;;;;;;;2.70;2.40;;;;;;;;;;5102626;27;20082;-62
2024/01/31 06:03:49;;;;;;;5.20;2.10;;;;;;;;;;5102464;27;20105;-62
2024/01/31 06:06:15;;;;;;;6.00;2.58;;;;;;;;;;5102640;27;20052;-62
2024/01/31 06:08:42;;;;;;;8.10;2.30;;;;;;;;;;5102955;27;20498;-63
2024/01/31 06:11:08;;;;;;;5.97;2.65;;;;;;;;;;5104129;27;20606;-62
2024/01/31 06:13:35;;;;;;;5.35;2.78;;;;;;;;;;5106328;27;20088;-62
2024/01/31 06:16:04;;;;;;;6.10;2.55;;;;;;;;;;5105986;27;20059;-61
2024/01/31 06:18:34;;;;;;;3.08;2.22;;;;;;;;;;5105618;27;20583;-62
2024/01/31 06:21:02;;;;;;;3.40;2.40;;;;;;;;;;5105841;27;20139;-62
2024/01/31 06:23:29;;;;;;;4.25;2.65;;;;;;;;;;5104798;27;20147;-60
2024/01/31 06:25:56;;;;;;;4.57;2.92;;;;;;;;;;5105353;27;20141;-62
2024/01/31 06:28:22;;;;;;;6.07;2.60;;;;;;;;;;5106307;27;20044;-62
2024/01/31 06:30:58;;;;;;;6.07;3.10;;;;;;;;;;5105908;27;20215;-60
2024/01/31 06:33:31;;;;;;;4.45;2.70;;;;;;;;;;5106133;27;20641;-62
2024/01/31 06:36:00;;;;;;;3.55;2.80;;;;;;;;;;5105482;28;20441;-63
2024/01/31 06:38:26;;;;;;;5.32;2.72;;;;;;;;;;5105079;27;20513;-61
2024/01/31 06:40:58;;;;;;;3.53;2.78;;;;;;;;;;5105316;27;20052;-62
2024/01/31 06:43:27;;;;;;;4.97;3.13;;;;;;;;;;5102914;27;21113;-61
2024/01/31 06:45:56;;;;;;;5.65;2.97;;;;;;;;;;5100127;27;20056;-60
2024/01/31 06:48:23;;;;;;;5.80;3.03;;;;;;;;;;5085928;28;20056;-61
2024/01/31 06:50:50;;;;;;;3.00;2.70;;;;;;;;;;5085317;28;20055;-62
2024/01/31 06:53:17;;;;;;;5.35;3.13;;;;;;;;;;5099123;28;20109;-61
2024/01/31 06:55:44;;;;;;;6.78;3.35;;;;;;;;;;5099709;27;20114;-61
2024/01/31 06:58:10;;;;;;;6.90;3.42;;;;;;;;;;5094133;27;20056;-61
2024/01/31 07:00:37;;;;;;;4.47;3.58;;;;;;;;;;5103678;28;20063;-62
2024/01/31 07:03:03;;;;;;;6.32;3.80;;;;;;;;;;5099812;27;20052;-60
2024/01/31 07:05:29;;;;;;;6.38;4.50;;;;;;;;;;5085144;28;20048;-61
2024/01/31 07:07:56;;;;;;;6.07;4.00;;;;;;;;;;5085009;28;20055;-62
2024/01/31 07:10:22;;;;;;;6.40;4.20;;;;;;;;;;5084895;28;20049;-62
2024/01/31 07:12:52;;;;;;;5.13;4.20;;;;;;;;;;5091924;28;20063;-62
2024/01/31 07:15:22;;;;;;;13.10;5.10;;;;;;;;;;5099135;27;20084;-62
2024/01/31 07:17:48;;;;;;;9.45;5.45;;;;;;;;;;5084822;28;20059;-62
2024/01/31 07:20:15;;;;;;;6.40;4.38;;;;;;;;;;5084876;28;20135;-62
2024/01/31 07:22:42;;;;;;;7.38;5.40;;;;;;;;;;5083877;28;20106;-60
2024/01/31 07:25:11;;;;;;;8.10;5.28;;;;;;;;;;5084635;28;20056;-60
2024/01/31 07:27:40;;;;;;;8.43;6.07;;;;;;;;;;5084524;28;20052;-63
2024/01/31 07:30:08;;;;;;;6.82;5.60;;;;;;;;;;5085341;28;20590;-62
2024/01/31 07:32:34;;;;;;;10.65;6.43;;;;;;;;;;5110695;27;20079;-61
2024/01/31 07:35:01;;;;;;;11.63;6.40;;;;;;;;;;5125277;27;20533;-62
2024/01/31 07:37:27;;;;;;;9.07;5.85;;;;;;;;;;5116933;27;20139;-61
2024/01/31 07:39:56;;;;;;;10.50;6.30;;;;;;;;;;5103570;27;20052;-60
2024/01/31 07:42:22;;;;;;;15.18;6.97;;;;;;;;;;5103442;28;20131;-62
2024/01/31 07:44:49;;;;;;;10.43;6.60;;;;;;;;;;5092568;27;20126;-62
2024/01/31 07:47:15;;;;;;;11.48;7.35;;;;;;;;;;5092613;28;20152;-61
2024/01/31 07:49:42;;;;;;;10.63;7.38;;;;;;;;;;5100177;27;20114;-62
2024/01/31 07:52:08;;;;;;;11.50;7.68;;;;;;;;;;5104431;27;20082;-61
2024/01/31 07:54:35;;;;;;;12.18;7.93;;;;;;;;;;5100867;27;20469;-62
2024/01/31 07:57:02;;;;;;;10.35;7.80;;;;;;;;;;5085860;28;20056;-62
2024/01/31 07:59:28;;;;;;;12.13;8.30;;;;;;;;;;5099560;27;20130;-62
2024/01/31 08:01:55;;;;;;;11.25;7.50;;;;;;;;;;5097288;27;20134;-62
2024/01/31 08:04:21;;;;;;;12.05;7.03;;;;;;;;;;5102547;27;20082;-61
2024/01/31 08:06:48;;;;;;;10.07;7.20;;;;;;;;;;5102929;27;20105;-62
2024/01/31 08:09:16;;;;;;;12.23;7.80;;;;;;;;;;5103884;27;20063;-62
2024/01/31 08:11:48;;;;;;;11.27;7.88;;;;;;;;;;5104123;27;20523;-61
2024/01/31 08:14:14;;;;;;;10.45;7.25;;;;;;;;;;5104299;27;20502;-61
2024/01/31 08:16:41;;;;;;;8.95;6.75;;;;;;;;;;5103040;27;20049;-58
2024/01/31 08:19:07;;;;;;;8.80;6.30;;;;;;;;;;5104342;27;20090;-62
2024/01/31 08:21:35;;;;;;;9.75;6.40;;;;;;;;;;5097388;27;20505;-64
2024/01/31 08:24:02;;;;;;;13.70;6.90;;;;;;;;;;5103793;27;20133;-63
2024/01/31 08:26:28;;;;;;;8.85;6.88;;;;;;;;;;5102249;27;20522;-61
2024/01/31 08:28:55;;;;;;;9.23;5.85;;;;;;;;;;5103891;27;20557;-61
2024/01/31 08:31:40;;;;;;;8.23;5.75;;;;;;;;;;5103929;27;20056;-61
2024/01/31 08:34:06;;;;;;;7.20;5.78;;;;;;;;;;5102382;27;20136;-61
2024/01/31 08:36:33;;;;;;;7.32;5.57;;;;;;;;;;5084980;27;20060;-59
2024/01/31 08:39:00;;;;;;;8.88;5.80;;;;;;;;;;5093021;28;20060;-61
2024/01/31 08:41:26;;;;;;;9.75;5.55;;;;;;;;;;5092056;28;20499;-61
2024/01/31 08:43:53;;;;;;;7.80;5.28;;;;;;;;;;5102163;27;20056;-61
2024/01/31 08:46:19;;;;;;;7.65;5.45;;;;;;;;;;5095713;27;20088;-61
2024/01/31 08:48:46;;;;;;;11.10;6.18;;;;;;;;;;5084395;28;20153;-61
2024/01/31 08:51:14;;;;;;;8.27;5.72;;;;;;;;;;5085116;28;20134;-59
2024/01/31 08:53:42;;;;;;;7.20;4.85;;;;;;;;;;5103804;27;20534;-60
2024/01/31 08:56:09;;;;;;;7.70;5.13;;;;;;;;;;5099439;28;20052;-61
2024/01/31 08:58:35;;;;;;;7.03;5.22;;;;;;;;;;5083657;28;20492;-59
2024/01/31 09:01:03;;;;;;;6.20;5.00;;;;;;;;;;5084529;27;20048;-61
2024/01/31 09:03:30;;;;;;;7.28;4.45;;;;;;;;;;5093976;28;20486;-61
2024/01/31 09:05:56;;;;;;;11.77;5.20;;;;;;;;;;5103452;27;20067;-59
2024/01/31 09:08:23;;;;;;;6.68;5.30;;;;;;;;;;5102779;27;20168;-60
2024/01/31 09:10:49;;;;;;;7.85;5.43;;;;;;;;;;5102594;27;20052;-61
2024/01/31 09:13:16;;;;;;;7.30;5.82;;;;;;;;;;5100579;27;20515;-61
2024/01/31 09:15:43;;;;;;;8.05;5.38;;;;;;;;;;5103395;27;20076;-58
2024/01/31 09:18:09;;;;;;;7.07;5.68;;;;;;;;;;5103343;27;20151;-60
2024/01/31 09:20:36;;;;;;;8.80;6.22;;;;;;;;;;5098944;27;20106;-60
2024/01/31 09:23:02;;;;;;;6.93;4.85;;;;;;;;;;5101187;28;20121;-61
2024/01/31 09:25:29;;;;;;;6.57;4.72;;;;;;;;;;5103436;27;20105;-61
2024/01/31 09:27:55;;;;;;;7.80;5.75;;;;;;;;;;5102447;27;20044;-59
2024/01/31 09:30:22;;;;;;;6.75;4.80;;;;;;;;;;5083148;28;20056;-61
2024/01/31 09:32:48;;;;;;;5.88;5.10;;;;;;;;;;5083078;28;20824;-61
2024/01/31 09:35:14;;;;;;;7.60;4.88;;;;;;;;;;5082008;28;20144;-61
2024/01/31 09:37:41;;;;;;;6.15;5.07;;;;;;;;;;5085664;28;20115;-62
2024/01/31 09:40:08;;;;;;;6.78;5.40;;;;;;;;;;5095972;27;20141;-62
2024/01/31 09:42:37;;;;;;;10.20;5.97;;;;;;;;;;5085015;27;20053;-61
2024/01/31 09:45:03;;;;;;;9.93;5.38;;;;;;;;;;5083354;28;20057;-61
2024/01/31 09:47:30;;;;;;;8.55;5.40;;;;;;;;;;5106824;27;20056;-62
2024/01/31 09:49:57;;;;;;;8.52;5.97;;;;;;;;;;5106219;27;20059;-60
2024/01/31 09:52:27;;;;;;;7.00;6.00;;;;;;;;;;5106910;27;20048;-62
2024/01/31 09:54:57;;;;;;;9.02;6.25;;;;;;;;;;5106807;27;20082;-61
2024/01/31 09:57:24;;;;;;;7.32;5.57;;;;;;;;;;5107330;27;20059;-61
2024/01/31 09:59:51;;;;;;;8.65;6.72;;;;;;;;;;5106465;27;20068;-61
2024/01/31 10:02:17;;;;;;;7.65;6.32;;;;;;;;;;5105969;27;20052;-61
2024/01/31 10:04:53;;;;;;;9.27;6.15;;;;;;;;;;5106532;27;20513;-60
2024/01/31 10:07:22;;;;;;;11.02;6.80;;;;;;;;;;5106964;27;20121;-62
2024/01/31 10:09:50;;;;;;;9.63;6.45;;;;;;;;;;5107022;27;20071;-61
2024/01/31 10:12:18;;;;;;;8.82;6.18;;;;;;;;;;5106789;27;20052;-62
2024/01/31 10:14:44;;;;;;;9.63;6.82;;;;;;;;;;5106234;27;20055;-62
2024/01/31 10:17:10;;;;;;;7.82;6.30;;;;;;;;;;5105352;27;20555;-61
2024/01/31 10:19:37;;;;;;;9.13;6.82;;;;;;;;;;5096809;28;20119;-61
2024/01/31 10:22:03;;;;;;;10.68;6.13;;;;;;;;;;5090806;27;20052;-61
2024/01/31 10:24:30;;;;;;;8.02;5.88;;;;;;;;;;5103981;27;20056;-61
2024/01/31 10:26:56;;;;;;;13.23;6.45;;;;;;;;;;5105795;27;20044;-60
2024/01/31 10:29:23;;;;;;;8.52;6.03;;;;;;;;;;5103434;27;20509;-61
2024/01/31 10:31:50;;;;;;;9.15;6.25;;;;;;;;;;5105936;27;20059;-61
2024/01/31 10:34:17;;;;;;;13.00;6.47;;;;;;;;;;5105936;27;20460;-63
2024/01/31 10:36:51;;;;;;;13.13;6.50;;;;;;;;;;5098563;27;20057;-62
2024/01/31 10:39:21;;;;;;;9.00;5.70;;;;;;;;;;5085787;28;20088;-62
2024/01/31 10:41:49;;;;;;;8.18;5.55;;;;;;;;;;5106087;27;20063;-62
2024/01/31 10:44:15;;;;;;;13.55;6.13;;;;;;;;;;5101132;27;20512;-60
2024/01/31 10:46:44;;;;;;;9.52;5.88;;;;;;;;;;5091541;27;20053;-61
2024/01/31 10:49:13;;;;;;;9.02;6.45;;;;;;;;;;5101459;27;20055;-62
2024/01/31 10:51:41;;;;;;;10.90;6.18;;;;;;;;;;5105758;27;20110;-62
2024/01/31 10:54:08;;;;;;;7.93;5.90;;;;;;;;;;5100393;27;20098;-62
2024/01/31 10:56:36;;;;;;;13.00;6.25;;;;;;;;;;5105161;27;20059;-62
2024/01/31 10:59:05;;;;;;;12.20;6.93;;;;;;;;;;5104560;27;20052;-61
2024/01/31 11:01:31;;;;;;;13.43;7.13;;;;;;;;;;5104992;27;20058;-62
2024/01/31 11:03:58;;;;;;;9.82;6.63;;;;;;;;;;5105256;27;20056;-61
2024/01/31 11:06:24;;;;;;;11.40;7.38;;;;;;;;;;5105569;28;20063;-61
2024/01/31 11:08:51;;;;;;;12.98;7.75;;;;;;;;;;5110596;27;20131;-61
2024/01/31 11:11:18;;;;;;;13.00;7.40;;;;;;;;;;5105727;27;20051;-62
2024/01/31 11:13:45;;;;;;;14.35;8.10;;;;;;;;;;5104496;27;20565;-62
2024/01/31 11:16:11;;;;;;;10.75;8.43;;;;;;;;;;5105534;28;20080;-61
2024/01/31 11:18:38;;;;;;;25.42;9.50;;;;;;;;;;5100451;28;20052;-61
2024/01/31 11:21:10;;;;;;;12.52;8.32;;;;;;;;;;5104161;27;20056;-62
2024/01/31 11:23:39;;;;;;;18.38;9.65;;;;;;;;;;5104996;27;20058;-62
2024/01/31 11:26:08;;;;;;;16.92;8.82;;;;;;;;;;5104718;27;20052;-61
2024/01/31 11:28:39;;;;;;;14.40;9.45;;;;;;;;;;5091299;27;20408;-61
2024/01/31 11:31:05;;;;;;;18.90;9.82;;;;;;;;;;5084346;28;20053;-61
2024/01/31 11:33:32;;;;;;;18.33;10.10;;;;;;;;;;5085078;28;20091;-60
2024/01/31 11:35:59;;;;;;;17.55;10.40;;;;;;;;;;5100774;28;20056;-61
2024/01/31 11:38:26;;;;;;;17.73;9.98;;;;;;;;;;5104899;27;20064;-61
2024/01/31 11:40:52;;;;;;;17.95;11.25;;;;;;;;;;5103902;27;20056;-61
2024/01/31 11:43:19;;;;;;;20.63;11.02;;;;;;;;;;5104498;28;20062;-62
2024/01/31 11:45:47;;;;;;;17.25;10.57;;;;;;;;;;5099543;27;20054;-61
2024/01/31 11:48:14;;;;;;;20.67;10.70;;;;;;;;;;5105033;27;20056;-62
2024/01/31 11:50:41;;;;;;;19.73;11.77;;;;;;;;;;5105036;27;20052;-61
2024/01/31 11:53:08;;;;;;;17.88;10.13;;;;;;;;;;5104974;28;20137;-61
2024/01/31 11:55:34;;;;;;;22.73;12.68;;;;;;;;;;5104997;27;20591;-62
2024/01/31 11:58:01;;;;;;;19.52;10.73;;;;;;;;;;5104947;27;20533;-62
2024/01/31 12:00:27;;;;;;;19.95;11.93;;;;;;;;;;5104436;27;20052;-61
2024/01/31 12:02:54;;;;;;;17.23;10.52;;;;;;;;;;5096503;27;20145;-59
2024/01/31 12:05:21;;;;;;;17.27;11.00;;;;;;;;;;5094470;27;20055;-62
2024/01/31 12:07:57;;;;;;;17.75;11.98;;;;;;;;;;5099600;27;20086;-62
2024/01/31 12:10:26;;;;;;;24.90;13.05;;;;;;;;;;5097056;28;20565;-61
2024/01/31 12:12:53;;;;;;;19.38;12.10;;;;;;;;;;5100136;27;20113;-58
2024/01/31 12:15:19;;;;;;;19.08;10.98;;;;;;;;;;5100502;27;20138;-62
2024/01/31 12:17:46;;;;;;;16.52;10.93;;;;;;;;;;5104122;27;20052;-62
2024/01/31 12:20:13;;;;;;;18.50;11.55;;;;;;;;;;5087421;27;20055;-62
2024/01/31 12:22:40;;;;;;;19.38;11.55;;;;;;;;;;5081403;27;20060;-61
2024/01/31 12:25:07;;;;;;;17.65;11.18;;;;;;;;;;5094034;28;20111;-61
2024/01/31 12:27:34;;;;;;;20.48;11.32;;;;;;;;;;5097274;27;20584;-60
2024/01/31 12:30:00;;;;;;;17.75;11.38;;;;;;;;;;5090151;27;20499;-61
2024/01/31 12:32:27;;;;;;;19.90;11.80;;;;;;;;;;5098109;28;20125;-61
2024/01/31 12:34:54;;;;;;;17.35;11.50;;;;;;;;;;5094520;27;20091;-60
2024/01/31 12:37:21;;;;;;;18.58;12.45;;;;;;;;;;5095140;28;20048;-61
2024/01/31 12:39:48;;;;;;;17.25;11.25;;;;;;;;;;5101273;27;20052;-59
2024/01/31 12:42:14;;;;;;;16.90;11.27;;;;;;;;;;5103329;27;20141;-60
2024/01/31 12:44:42;;;;;;;18.52;11.52;;;;;;;;;;5098256;27;20641;-61
2024/01/31 12:47:10;;;;;;;16.80;11.30;;;;;;;;;;5103609;28;20063;-61
2024/01/31 12:49:40;;;;;;;14.75;11.15;;;;;;;;;;5103918;28;20052;-62
2024/01/31 12:52:08;;;;;;;13.73;9.68;;;;;;;;;;5102515;27;20048;-62
2024/01/31 12:54:34;;;;;;;15.18;10.55;;;;;;;;;;5103860;27;20529;-60
2024/01/31 12:57:01;;;;;;;15.95;10.45;;;;;;;;;;5102882;28;20047;-62
2024/01/31 12:59:27;;;;;;;15.27;10.43;;;;;;;;;;5098327;27;20044;-60
2024/01/31 13:01:54;;;;;;;11.82;10.38;;;;;;;;;;5098566;27;20056;-62
2024/01/31 13:04:21;;;;;;;10.80;9.57;;;;;;;;;;5089231;27;20059;-61
2024/01/31 13:06:49;;;;;;;13.75;9.88;;;;;;;;;;5098107;27;20056;-61
2024/01/31 13:09:15;;;;;;;11.95;9.98;;;;;;;;;;5100982;27;20052;-62
2024/01/31 13:11:42;;;;;;;11.25;9.32;;;;;;;;;;5088710;28;20074;-62
2024/01/31 13:14:08;;;;;;;12.13;10.02;;;;;;;;;;5103669;27;20059;-60
2024/01/31 13:16:36;;;;;;;11.80;9.77;;;;;;;;;;5095171;28;20591;-62
2024/01/31 13:19:21;;;;;;;12.75;8.82;;;;;;;;;;5091757;28;20076;-62
2024/01/31 13:21:52;;;;;;;9.48;8.48;;;;;;;;;;5088277;28;20057;-60
2024/01/31 13:24:20;;;;;;;15.45;8.70;;;;;;;;;;5089937;28;20506;-61
2024/01/31 13:26:46;;;;;;;11.18;8.80;;;;;;;;;;5089453;28;20102;-59
2024/01/31 13:29:13;;;;;;;8.90;7.70;;;;;;;;;;5101820;27;20186;-57
2024/01/31 13:31:40;;;;;;;11.25;7.00;;;;;;;;;;5109868;27;20044;-61
2024/01/31 13:34:06;;;;;;;8.25;6.63;;;;;;;;;;5109711;27;20056;-60
2024/01/31 13:36:33;;;;;;;6.53;5.53;;;;;;;;;;5109803;27;20627;-61
2024/01/31 13:38:59;;;;;;;7.20;5.47;;;;;;;;;;5109346;27;20097;-62
2024/01/31 13:41:26;;;;;;;9.88;6.38;;;;;;;;;;5108975;27;20080;-63
2024/01/31 13:43:52;;;;;;;9.77;6.72;;;;;;;;;;5109719;27;20812;-61
2024/01/31 13:46:19;;;;;;;8.05;6.63;;;;;;;;;;5109112;27;20075;-59
2024/01/31 13:48:45;;;;;;;7.63;6.78;;;;;;;;;;5109868;27;20522;-60
2024/01/31 13:51:13;;;;;;;10.20;6.82;;;;;;;;;;5110148;27;20063;-60
2024/01/31 13:53:42;;;;;;;8.20;6.30;;;;;;;;;;5109407;27;20059;-59
2024/01/31 13:56:09;;;;;;;9.00;6.75;;;;;;;;;;5109305;27;20048;-59
2024/01/31 13:58:35;;;;;;;10.38;6.55;;;;;;;;;;5109835;27;20052;-59
2024/01/31 14:01:02;;;;;;;9.63;7.18;;;;;;;;;;5092676;27;20048;-60
2024/01/31 14:03:29;;;;;;;7.45;6.43;;;;;;;;;;5109378;27;20052;-60
2024/01/31 14:05:55;;;;;;;11.23;6.05;;;;;;;;;;5109282;27;20127;-60
2024/01/31 14:08:22;;;;;;;8.68;5.65;;;;;;;;;;5110315;27;20056;-61
2024/01/31 14:10:48;;;;;;;7.80;5.18;;;;;;;;;;5108580;27;20150;-62
2024/01/31 14:13:15;;;;;;;9.40;5.28;;;;;;;;;;5109154;27;20131;-60
2024/01/31 14:15:41;;;;;;;8.52;5.28;;;;;;;;;;5109205;27;20109;-60
2024/01/31 14:18:08;;;;;;;8.68;5.45;;;;;;;;;;5109797;27;20523;-64
2024/01/31 14:20:40;;;;;;;6.30;4.80;;;;;;;;;;5108902;27;20051;-60
2024/01/31 14:23:06;;;;;;;7.75;5.18;;;;;;;;;;5108745;27;20048;-61
2024/01/31 14:25:53;;;;;;;7.25;5.05;;;;;;;;;;5096404;28;20044;-60
2024/01/31 14:28:19;;;;;;;6.50;4.55;;;;;;;;;;5109907;27;20528;-62
2024/01/31 14:30:46;;;;;;;8.77;4.43;;;;;;;;;;5109729;27;20125;-62
2024/01/31 14:33:12;;;;;;;9.73;4.43;;;;;;;;;;5105973;27;20056;-62
2024/01/31 14:35:39;;;;;;;4.97;3.90;;;;;;;;;;5106211;27;20529;-63
2024/01/31 14:38:06;;;;;;;9.50;4.00;;;;;;;;;;5105912;27;20143;-64